createdAt,value
2023-04-07T00:01:23.478Z,8.88
2023-04-07T00:03:49.746Z,9.05
2023-04-07T00:06:16.037Z,8.25
2023-04-07T00:08:42.229Z,9.27
2023-04-07T00:11:08.427Z,8.77
2023-04-07T00:13:34.642Z,7.85
2023-04-07T00:16:00.816Z,9.30
2023-04-07T00:18:26.960Z,8.35
2023-04-07T00:20:53.201Z,8.27
2023-04-07T00:23:19.362Z,9.63
2023-04-07T00:25:45.594Z,8.80
2023-04-07T00:28:11.765Z,7.55
2023-04-07T00:30:37.962Z,8.15
2023-04-07T00:33:04.150Z,7.82
2023-04-07T00:35:30.420Z,7.55
2023-04-07T00:37:56.639Z,8.32
2023-04-07T00:40:22.806Z,8.40
2023-04-07T00:42:48.977Z,8.00
2023-04-07T00:45:15.116Z,8.82
2023-04-07T00:47:41.353Z,8.07
2023-04-07T00:50:07.536Z,7.65
2023-04-07T00:52:33.686Z,7.93
2023-04-07T00:54:59.912Z,8.50
2023-04-07T00:57:26.072Z,8.50
2023-04-07T00:59:52.272Z,8.25
2023-04-07T01:02:18.706Z,8.25
2023-04-07T01:04:45.165Z,8.18
2023-04-07T01:07:12.483Z,8.35
2023-04-07T01:09:38.669Z,8.07
2023-04-07T01:12:04.826Z,8.10
2023-04-07T01:14:30.969Z,8.68
2023-04-07T01:16:57.122Z,8.63
2023-04-07T01:19:23.294Z,8.57
2023-04-07T01:21:49.444Z,8.52
2023-04-07T01:24:15.639Z,9.13
2023-04-07T01:26:41.885Z,8.25
2023-04-07T01:29:08.093Z,9.32
2023-04-07T01:31:34.261Z,8.55
2023-04-07T01:34:00.470Z,8.90
2023-04-07T01:36:27.229Z,9.13
2023-04-07T01:38:53.370Z,8.00
2023-04-07T01:41:19.639Z,9.93
2023-04-07T01:43:46.373Z,8.55
2023-04-07T01:46:12.646Z,8.65
2023-04-07T01:48:38.789Z,9.35
2023-04-07T01:51:04.986Z,9.70
2023-04-07T01:53:31.135Z,9.00
2023-04-07T01:55:57.322Z,9.18
2023-04-07T01:58:23.464Z,8.65
2023-04-07T02:00:49.608Z,8.45
2023-04-07T02:03:17.917Z,8.85
2023-04-07T02:05:44.189Z,8.82
2023-04-07T02:08:10.342Z,9.98
2023-04-07T02:10:36.467Z,8.32
2023-04-07T02:13:02.633Z,9.35
2023-04-07T02:15:29.213Z,9.70
2023-04-07T02:17:55.388Z,9.02
2023-04-07T02:20:21.585Z,9.98
2023-04-07T02:22:47.725Z,9.05
2023-04-07T02:25:13.936Z,9.52
2023-04-07T02:27:40.078Z,8.85
2023-04-07T02:30:06.205Z,9.98
2023-04-07T02:32:32.392Z,8.45
2023-04-07T02:34:58.666Z,8.85
2023-04-07T02:37:24.841Z,8.32
2023-04-07T02:39:50.960Z,9.57
2023-04-07T02:42:17.111Z,8.73
2023-04-07T02:44:43.257Z,9.10
2023-04-07T02:47:09.395Z,8.68
2023-04-07T02:49:35.582Z,8.93
2023-04-07T02:52:01.722Z,9.05
2023-04-07T02:54:27.897Z,7.97
2023-04-07T02:56:54.075Z,8.95
2023-04-07T02:59:20.284Z,8.88
2023-04-07T03:01:46.529Z,8.60
2023-04-07T03:04:12.836Z,8.30
2023-04-07T03:06:39.167Z,8.73
2023-04-07T03:09:05.340Z,8.63
2023-04-07T03:11:31.540Z,8.75
2023-04-07T03:13:57.750Z,8.43
2023-04-07T03:16:24.038Z,8.43
2023-04-07T03:18:50.214Z,9.32
2023-04-07T03:21:16.416Z,9.68
2023-04-07T03:23:42.570Z,8.60
2023-04-07T03:26:08.712Z,8.68
2023-04-07T03:28:34.880Z,9.10
2023-04-07T03:31:01.098Z,8.40
2023-04-07T03:33:27.300Z,8.63
2023-04-07T03:35:53.553Z,8.60
2023-04-07T03:38:19.872Z,8.90
2023-04-07T03:40:46.068Z,8.68
2023-04-07T03:43:12.250Z,9.25
2023-04-07T03:45:38.404Z,7.85
2023-04-07T03:48:04.641Z,8.63
2023-04-07T03:50:30.835Z,8.68
2023-04-07T03:52:57.097Z,10.02
2023-04-07T03:55:23.268Z,9.15
2023-04-07T03:57:49.512Z,8.80
2023-04-07T04:00:15.655Z,8.68
2023-04-07T04:02:41.887Z,8.70
2023-04-07T04:05:08.069Z,8.63
2023-04-07T04:07:34.279Z,9.65
2023-04-07T04:10:00.449Z,8.73
2023-04-07T04:12:26.644Z,8.43
2023-04-07T04:14:52.798Z,9.05
2023-04-07T04:17:18.977Z,8.70
2023-04-07T04:19:45.135Z,8.38
2023-04-07T04:22:11.291Z,9.20
2023-04-07T04:24:37.413Z,8.30
2023-04-07T04:27:03.641Z,8.77
2023-04-07T04:29:31.665Z,8.82
2023-04-07T04:31:58.911Z,9.23
2023-04-07T04:34:25.080Z,10.40
2023-04-07T04:36:51.544Z,8.88
2023-04-07T04:39:17.777Z,9.65
2023-04-07T04:41:43.948Z,9.65
2023-04-07T04:44:10.374Z,8.80
2023-04-07T04:46:36.766Z,9.93
2023-04-07T04:49:02.982Z,8.43
2023-04-07T04:51:29.214Z,8.98
2023-04-07T04:53:55.684Z,9.32
2023-04-07T04:56:21.981Z,8.43
2023-04-07T04:58:48.194Z,8.55
2023-04-07T05:01:14.371Z,8.98
2023-04-07T05:03:40.648Z,10.43
2023-04-07T05:06:07.107Z,9.48
2023-04-07T05:08:33.325Z,9.55
2023-04-07T05:10:59.487Z,9.25
2023-04-07T05:13:25.657Z,9.77
2023-04-07T05:15:51.882Z,9.45
2023-04-07T05:18:18.090Z,9.07
2023-04-07T05:20:44.255Z,9.27
2023-04-07T05:23:10.406Z,9.05
2023-04-07T05:25:36.605Z,8.73
2023-04-07T05:28:02.806Z,8.52
2023-04-07T05:30:29.036Z,9.40
2023-04-07T05:32:55.348Z,8.70
2023-04-07T05:35:21.567Z,9.02
2023-04-07T05:37:47.739Z,9.05
2023-04-07T05:40:13.926Z,9.85
2023-04-07T05:42:40.095Z,9.77
2023-04-07T05:45:06.243Z,9.85
2023-04-07T05:47:32.389Z,9.90
2023-04-07T05:49:58.608Z,9.77
2023-04-07T05:52:24.763Z,8.93
2023-04-07T05:54:50.891Z,9.50
2023-04-07T05:57:17.172Z,9.55
2023-04-07T05:59:43.297Z,9.43
2023-04-07T06:02:09.549Z,9.65
2023-04-07T06:04:35.695Z,9.23
2023-04-07T06:07:01.832Z,10.10
2023-04-07T06:09:27.956Z,11.27
2023-04-07T06:11:54.159Z,10.05
2023-04-07T06:14:20.347Z,9.95
2023-04-07T06:16:46.525Z,10.88
2023-04-07T06:19:12.749Z,9.95
2023-04-07T06:21:38.908Z,10.82
2023-04-07T06:24:05.051Z,10.15
2023-04-07T06:26:31.252Z,10.18
2023-04-07T06:28:57.426Z,9.32
2023-04-07T06:31:23.700Z,9.57
2023-04-07T06:33:50.149Z,9.07
2023-04-07T06:36:16.637Z,8.75
2023-04-07T06:38:42.753Z,10.02
2023-04-07T06:41:08.922Z,9.00
2023-04-07T06:43:35.066Z,8.63
2023-04-07T06:46:01.286Z,8.13
2023-04-07T06:48:27.500Z,9.20
2023-04-07T06:50:53.674Z,8.65
2023-04-07T06:53:19.838Z,6.93
2023-04-07T06:55:46.061Z,7.15
2023-04-07T06:58:12.194Z,8.82
2023-04-07T07:00:38.343Z,7.93
2023-04-07T07:03:04.792Z,8.10
2023-04-07T07:05:31.076Z,7.95
2023-04-07T07:07:57.197Z,7.70
2023-04-07T07:10:23.431Z,7.82
2023-04-07T07:12:49.572Z,8.40
2023-04-07T07:15:15.740Z,7.00
2023-04-07T07:17:41.921Z,7.45
2023-04-07T07:20:08.108Z,6.85
2023-04-07T07:22:34.235Z,7.38
2023-04-07T07:25:00.384Z,7.28
2023-04-07T07:27:26.526Z,6.70
2023-04-07T07:29:52.648Z,6.65
2023-04-07T07:32:18.829Z,6.05
2023-04-07T07:34:45.034Z,6.38
2023-04-07T07:37:11.199Z,6.35
2023-04-07T07:39:37.350Z,6.32
2023-04-07T07:42:05.065Z,6.82
2023-04-07T07:44:32.541Z,6.55
2023-04-07T07:46:58.798Z,6.00
2023-04-07T07:49:24.975Z,6.50
2023-04-07T07:51:51.149Z,5.88
2023-04-07T07:54:17.349Z,6.07
2023-04-07T07:56:43.481Z,6.13
2023-04-07T07:59:09.626Z,6.22
2023-04-07T08:01:35.779Z,5.53
2023-04-07T08:04:01.965Z,6.40
2023-04-07T08:06:28.218Z,6.20
2023-04-07T08:08:54.390Z,5.88
2023-04-07T08:11:20.504Z,5.53
2023-04-07T08:13:47.082Z,5.85
2023-04-07T08:16:13.449Z,5.32
2023-04-07T08:18:39.639Z,6.03
2023-04-07T08:21:05.817Z,6.25
2023-04-07T08:23:31.940Z,5.63
2023-04-07T08:25:58.118Z,4.03
2023-04-07T08:28:24.347Z,5.00
2023-04-07T08:30:50.477Z,4.40
2023-04-07T08:33:16.632Z,4.40
2023-04-07T08:35:42.790Z,4.00
2023-04-07T08:38:08.971Z,3.85
2023-04-07T08:40:35.163Z,4.90
2023-04-07T08:43:01.283Z,4.78
2023-04-07T08:45:27.481Z,5.35
2023-04-07T08:47:53.717Z,4.75
2023-04-07T08:50:19.934Z,4.30
2023-04-07T08:52:46.194Z,4.53
2023-04-07T08:55:12.387Z,4.32
2023-04-07T08:57:38.553Z,4.57
2023-04-07T09:00:04.767Z,3.90
2023-04-07T09:02:31.057Z,4.60
2023-04-07T09:04:57.315Z,4.47
2023-04-07T09:07:23.490Z,4.78
2023-04-07T09:09:49.610Z,4.97
2023-04-07T09:12:15.748Z,4.10
2023-04-07T09:14:41.890Z,4.50
2023-04-07T09:17:08.009Z,4.00
2023-04-07T09:19:34.210Z,4.65
2023-04-07T09:22:00.380Z,4.40
2023-04-07T09:24:26.497Z,4.18
2023-04-07T09:26:52.679Z,4.43
2023-04-07T09:29:18.892Z,4.40
2023-04-07T09:31:45.084Z,4.28
2023-04-07T09:34:11.249Z,4.28
2023-04-07T09:36:37.371Z,4.50
2023-04-07T09:39:03.506Z,4.80
2023-04-07T09:41:29.661Z,5.65
2023-04-07T09:43:55.870Z,4.68
2023-04-07T09:46:22.849Z,4.03
2023-04-07T09:48:50.537Z,4.43
2023-04-07T09:51:16.713Z,3.97
2023-04-07T09:53:42.823Z,3.97
2023-04-07T09:56:09.017Z,3.88
2023-04-07T09:58:35.169Z,4.00
2023-04-07T10:01:01.393Z,3.83
2023-04-07T10:03:27.650Z,4.78
2023-04-07T10:05:53.891Z,4.88
2023-04-07T10:08:22.838Z,5.03
2023-04-07T10:10:49.008Z,5.00
2023-04-07T10:13:15.220Z,5.10
2023-04-07T10:15:41.430Z,4.43
2023-04-07T10:18:07.720Z,4.57
2023-04-07T10:20:33.957Z,4.60
2023-04-07T10:23:00.144Z,4.30
2023-04-07T10:25:26.360Z,4.60
2023-04-07T10:27:52.542Z,5.18
2023-04-07T10:30:18.729Z,4.53
2023-04-07T10:32:44.952Z,4.13
2023-04-07T10:35:11.238Z,4.45
2023-04-07T10:37:37.469Z,4.30
2023-04-07T10:40:03.770Z,5.05
2023-04-07T10:42:29.970Z,4.72
2023-04-07T10:44:56.087Z,4.72
2023-04-07T10:47:22.219Z,4.05
2023-04-07T10:49:48.333Z,3.60
2023-04-07T10:52:14.495Z,3.90
2023-04-07T10:54:40.610Z,3.83
2023-04-07T10:57:06.784Z,3.60
2023-04-07T10:59:32.984Z,3.75
2023-04-07T11:01:59.184Z,3.67
2023-04-07T11:04:25.673Z,3.42
2023-04-07T11:06:51.944Z,3.03
2023-04-07T11:09:18.080Z,4.03
2023-04-07T11:11:44.333Z,3.10
2023-04-07T11:14:10.531Z,2.50
2023-04-07T11:16:36.758Z,2.60
2023-04-07T11:19:03.005Z,2.88
2023-04-07T11:21:29.164Z,2.30
2023-04-07T11:23:55.314Z,1.42
2023-04-07T11:26:21.551Z,1.65
2023-04-07T11:28:47.748Z,1.33
2023-04-07T11:31:13.923Z,1.30
2023-04-07T11:33:40.109Z,1.38
2023-04-07T11:36:06.368Z,1.48
2023-04-07T11:38:32.589Z,1.70
2023-04-07T11:40:58.784Z,2.22
2023-04-07T11:43:24.908Z,2.90
2023-04-07T11:45:51.115Z,3.35
2023-04-07T11:48:17.269Z,2.95
2023-04-07T11:50:43.406Z,2.65
2023-04-07T11:53:09.808Z,2.97
2023-04-07T11:55:36.007Z,2.40
2023-04-07T11:58:02.131Z,2.47
2023-04-07T12:00:28.340Z,2.28
2023-04-07T12:02:54.671Z,2.25
2023-04-07T12:05:21.001Z,2.22
2023-04-07T12:07:47.219Z,2.55
2023-04-07T12:10:13.480Z,2.33
2023-04-07T12:12:39.640Z,2.25
2023-04-07T12:15:05.764Z,1.95
2023-04-07T12:17:31.963Z,2.00
2023-04-07T12:19:58.120Z,2.10
2023-04-07T12:22:24.278Z,2.55
2023-04-07T12:24:50.411Z,2.20
2023-04-07T12:27:16.598Z,2.58
2023-04-07T12:29:42.773Z,2.60
2023-04-07T12:32:09.022Z,2.42
2023-04-07T12:34:35.198Z,2.65
2023-04-07T12:37:01.354Z,2.28
2023-04-07T12:39:27.553Z,2.45
2023-04-07T12:41:53.770Z,2.17
2023-04-07T12:44:20.010Z,2.47
2023-04-07T12:46:46.214Z,2.80
2023-04-07T12:49:12.398Z,2.60
2023-04-07T12:51:38.509Z,2.97
2023-04-07T12:54:04.721Z,2.80
2023-04-07T12:56:30.861Z,3.00
2023-04-07T12:58:57.052Z,2.80
2023-04-07T13:01:23.271Z,2.80
2023-04-07T13:03:49.943Z,2.80
2023-04-07T13:06:16.369Z,2.33
2023-04-07T13:08:42.545Z,3.35
2023-04-07T13:11:08.710Z,2.80
2023-04-07T13:13:34.891Z,2.78
2023-04-07T13:16:01.065Z,2.95
2023-04-07T13:18:27.255Z,2.88
2023-04-07T13:21:10.734Z,3.45
2023-04-07T13:23:43.161Z,3.40
2023-04-07T13:26:09.958Z,3.10
2023-04-07T13:28:36.163Z,3.05
2023-04-07T13:31:02.380Z,2.40
2023-04-07T13:33:28.539Z,2.47
2023-04-07T13:35:54.742Z,2.63
2023-04-07T13:38:21.002Z,2.90
2023-04-07T13:40:47.172Z,2.40
2023-04-07T13:43:13.285Z,2.40
2023-04-07T13:45:39.477Z,2.70
2023-04-07T13:48:05.732Z,2.53
2023-04-07T13:50:31.973Z,2.80
2023-04-07T13:52:58.157Z,2.40
2023-04-07T13:55:24.402Z,2.78
2023-04-07T13:57:50.641Z,2.45
2023-04-07T14:00:16.776Z,2.72
2023-04-07T14:02:43.078Z,2.67
2023-04-07T14:05:09.332Z,2.45
2023-04-07T14:07:35.537Z,2.55
2023-04-07T14:10:01.697Z,2.30
2023-04-07T14:12:27.867Z,2.60
2023-04-07T14:14:54.057Z,2.40
2023-04-07T14:17:20.428Z,2.78
2023-04-07T14:19:50.841Z,2.28
2023-04-07T14:22:17.159Z,2.63
2023-04-07T14:24:44.245Z,2.30
2023-04-07T14:27:10.422Z,3.05
2023-04-07T14:29:38.557Z,3.00
2023-04-07T14:32:04.771Z,2.97
2023-04-07T14:34:30.885Z,3.03
2023-04-07T14:36:57.155Z,3.17
2023-04-07T14:39:23.351Z,3.22
2023-04-07T14:41:49.508Z,2.80
2023-04-07T14:44:20.129Z,2.47
2023-04-07T14:46:46.329Z,2.58
2023-04-07T14:49:12.574Z,2.50
2023-04-07T14:51:38.771Z,2.22
2023-04-07T14:54:04.954Z,2.30
2023-04-07T14:56:31.125Z,2.17
2023-04-07T14:58:57.332Z,2.10
2023-04-07T15:01:23.513Z,2.70
2023-04-07T15:03:49.922Z,2.58
2023-04-07T15:06:16.308Z,2.45
2023-04-07T15:08:42.458Z,2.55
2023-04-07T15:11:08.595Z,2.60
2023-04-07T15:13:34.779Z,2.30
2023-04-07T15:16:00.978Z,2.72
2023-04-07T15:18:27.205Z,2.70
2023-04-07T15:20:53.419Z,2.50
2023-04-07T15:23:19.645Z,2.58
2023-04-07T15:25:45.880Z,2.80
2023-04-07T15:28:12.000Z,2.72
2023-04-07T15:30:38.229Z,3.08
2023-04-07T15:33:04.443Z,2.60
2023-04-07T15:35:30.626Z,2.92
2023-04-07T15:37:56.783Z,2.50
2023-04-07T15:40:22.942Z,2.00
2023-04-07T15:42:49.086Z,2.28
2023-04-07T15:45:15.256Z,2.13
2023-04-07T15:47:41.416Z,2.25
2023-04-07T15:50:07.684Z,2.78
2023-04-07T15:52:33.887Z,3.00
2023-04-07T15:55:00.037Z,3.20
2023-04-07T15:57:26.187Z,2.63
2023-04-07T15:59:52.332Z,2.33
2023-04-07T16:02:18.601Z,2.70
2023-04-07T16:04:44.903Z,2.47
2023-04-07T16:07:11.066Z,2.67
2023-04-07T16:09:37.234Z,2.55
2023-04-07T16:12:03.377Z,2.20
2023-04-07T16:14:29.670Z,2.20
2023-04-07T16:16:55.947Z,2.13
2023-04-07T16:19:22.118Z,2.03
2023-04-07T16:21:48.285Z,1.50
2023-04-07T16:24:14.427Z,1.60
2023-04-07T16:26:40.553Z,1.17
2023-04-07T16:29:06.761Z,1.30
2023-04-07T16:31:32.904Z,1.55
2023-04-07T16:33:59.099Z,1.50
2023-04-07T16:36:25.240Z,1.73
2023-04-07T16:38:51.353Z,1.70
2023-04-07T16:41:17.517Z,1.40
2023-04-07T16:43:43.697Z,1.50
2023-04-07T16:46:09.891Z,1.73
2023-04-07T16:48:36.090Z,1.42
2023-04-07T16:51:02.266Z,1.52
2023-04-07T16:53:28.403Z,1.50
2023-04-07T16:55:54.594Z,1.25
2023-04-07T16:58:20.810Z,9.10
2023-04-07T17:00:46.943Z,3.80
2023-04-07T17:03:13.264Z,13.07
2023-04-07T17:05:39.566Z,12.00
2023-04-07T17:08:05.739Z,7.88
2023-04-07T17:10:31.968Z,7.15
2023-04-07T17:12:58.195Z,16.05
2023-04-07T17:15:24.395Z,3.47
2023-04-07T17:17:50.657Z,5.40
2023-04-07T17:20:16.910Z,2.25
2023-04-07T17:22:43.119Z,6.90
2023-04-07T17:25:09.314Z,9.65
2023-04-07T17:27:35.459Z,3.55
2023-04-07T17:30:01.696Z,11.10
2023-04-07T17:32:27.894Z,2.20
2023-04-07T17:34:54.068Z,3.42
2023-04-07T17:37:20.254Z,2.42
2023-04-07T17:39:46.460Z,3.88
2023-04-07T17:42:12.601Z,4.15
2023-04-07T17:44:38.713Z,3.20
2023-04-07T17:47:04.910Z,2.72
2023-04-07T17:49:31.132Z,16.35
2023-04-07T17:51:57.293Z,3.17
2023-04-07T17:54:23.404Z,6.70
2023-04-07T17:56:49.615Z,8.60
2023-04-07T17:59:15.834Z,4.38
2023-04-07T18:01:42.167Z,4.13
2023-04-07T18:04:08.527Z,13.32
2023-04-07T18:06:34.815Z,15.35
2023-04-07T18:09:00.973Z,19.00
2023-04-07T18:11:27.173Z,3.85
2023-04-07T18:13:53.315Z,1.80
2023-04-07T18:16:21.440Z,1.92
2023-04-07T18:18:48.489Z,3.03
2023-04-07T18:21:14.628Z,2.08
2023-04-07T18:23:40.806Z,2.25
2023-04-07T18:26:07.198Z,2.03
2023-04-07T18:28:33.360Z,2.00
2023-04-07T18:30:59.601Z,4.97
2023-04-07T18:33:25.854Z,3.70
2023-04-07T18:35:52.112Z,4.65
2023-04-07T18:38:18.348Z,2.17
2023-04-07T18:40:44.524Z,3.05
2023-04-07T18:43:10.661Z,2.03
2023-04-07T18:45:36.987Z,1.88
2023-04-07T18:48:03.455Z,2.10
2023-04-07T18:50:29.633Z,2.20
2023-04-07T18:52:55.818Z,2.20
2023-04-07T18:55:22.012Z,2.60
2023-04-07T18:57:49.413Z,2.42
2023-04-07T19:00:15.548Z,2.92
2023-04-07T19:02:41.921Z,2.85
2023-04-07T19:05:08.173Z,2.90
2023-04-07T19:07:34.907Z,2.47
2023-04-07T19:10:01.122Z,2.33
2023-04-07T19:12:27.314Z,2.47
2023-04-07T19:14:53.544Z,2.90
2023-04-07T19:17:19.808Z,3.05
2023-04-07T19:19:46.006Z,3.03
2023-04-07T19:22:12.144Z,3.00
2023-04-07T19:24:38.284Z,3.08
2023-04-07T19:27:04.468Z,3.60
2023-04-07T19:29:30.717Z,3.45
2023-04-07T19:31:57.027Z,3.80
2023-04-07T19:34:23.270Z,3.47
2023-04-07T19:36:49.464Z,3.38
2023-04-07T19:39:15.658Z,3.80
2023-04-07T19:41:41.889Z,3.75
2023-04-07T19:44:08.062Z,3.67
2023-04-07T19:46:34.302Z,3.33
2023-04-07T19:49:00.434Z,3.30
2023-04-07T19:51:26.594Z,2.95
2023-04-07T19:53:52.790Z,3.50
2023-04-07T19:56:18.963Z,3.38
2023-04-07T19:58:45.160Z,3.25
2023-04-07T20:01:11.431Z,2.90
2023-04-07T20:03:37.838Z,3.42
2023-04-07T20:06:04.083Z,3.05
2023-04-07T20:08:30.313Z,3.35
2023-04-07T20:10:56.497Z,3.00
2023-04-07T20:13:22.712Z,2.90
2023-04-07T20:15:48.955Z,3.30
2023-04-07T20:18:15.179Z,3.00
2023-04-07T20:20:41.342Z,3.20
2023-04-07T20:23:07.561Z,3.03
2023-04-07T20:25:33.729Z,3.05
2023-04-07T20:27:59.909Z,2.80
2023-04-07T20:30:26.163Z,3.28
2023-04-07T20:32:52.335Z,2.95
2023-04-07T20:35:18.586Z,3.00
2023-04-07T20:37:44.892Z,3.00
2023-04-07T20:40:11.285Z,3.00
2023-04-07T20:42:37.505Z,2.88
2023-04-07T20:45:03.738Z,2.80
2023-04-07T20:47:30.067Z,3.10
2023-04-07T20:49:56.225Z,3.35
2023-04-07T20:52:22.413Z,2.90
2023-04-07T20:54:48.607Z,3.03
2023-04-07T20:57:14.775Z,3.25
2023-04-07T20:59:40.962Z,3.08
2023-04-07T21:02:07.289Z,3.05
2023-04-07T21:04:33.658Z,2.78
2023-04-07T21:06:59.842Z,2.80
2023-04-07T21:09:25.985Z,2.83
2023-04-07T21:11:52.174Z,2.80
2023-04-07T21:14:18.314Z,2.90
2023-04-07T21:16:44.495Z,3.13
2023-04-07T21:19:10.645Z,3.30
2023-04-07T21:21:36.849Z,2.70
2023-04-07T21:24:02.979Z,3.58
2023-04-07T21:26:29.104Z,3.38
2023-04-07T21:28:55.303Z,3.40
2023-04-07T21:31:21.608Z,3.60
2023-04-07T21:33:47.962Z,3.88
2023-04-07T21:36:14.120Z,3.75
2023-04-07T21:38:40.308Z,4.22
2023-04-07T21:41:06.447Z,4.50
2023-04-07T21:43:32.642Z,4.45
2023-04-07T21:45:58.855Z,4.28
2023-04-07T21:48:25.065Z,4.50
2023-04-07T21:50:51.272Z,4.85
2023-04-07T21:53:17.415Z,4.18
2023-04-07T21:55:43.553Z,4.00
2023-04-07T21:58:09.753Z,4.32
2023-04-07T22:00:35.947Z,4.28
2023-04-07T22:03:02.284Z,4.80
2023-04-07T22:05:28.538Z,4.40
2023-04-07T22:07:54.731Z,4.90
2023-04-07T22:10:20.928Z,4.30
2023-04-07T22:12:47.102Z,4.07
2023-04-07T22:15:13.262Z,4.95
2023-04-07T22:17:39.530Z,4.60
2023-04-07T22:20:05.678Z,4.25
2023-04-07T22:22:31.853Z,5.80
2023-04-07T22:24:57.989Z,8.90
2023-04-07T22:27:24.125Z,10.00
2023-04-07T22:29:50.343Z,7.10
2023-04-07T22:32:16.567Z,6.47
2023-04-07T22:34:42.756Z,5.72
2023-04-07T22:37:08.890Z,5.03
2023-04-07T22:39:35.050Z,4.95
2023-04-07T22:42:01.180Z,4.40
2023-04-07T22:44:27.347Z,4.70
2023-04-07T22:46:53.539Z,5.00
2023-04-07T22:49:19.757Z,4.53
2023-04-07T22:51:45.937Z,4.93
2023-04-07T22:54:12.109Z,4.53
2023-04-07T22:56:38.260Z,4.80
2023-04-07T22:59:04.455Z,4.55
2023-04-07T23:01:30.604Z,4.70
2023-04-07T23:03:56.806Z,5.00
2023-04-07T23:06:22.981Z,5.45
2023-04-07T23:08:49.311Z,4.63
2023-04-07T23:11:15.622Z,5.43
2023-04-07T23:13:41.750Z,5.00
2023-04-07T23:16:07.915Z,4.85
2023-04-07T23:18:34.105Z,4.75
2023-04-07T23:21:00.236Z,4.93
2023-04-07T23:23:26.685Z,4.40
2023-04-07T23:25:52.900Z,4.05
2023-04-07T23:28:19.104Z,4.53
2023-04-07T23:30:45.246Z,4.97
2023-04-07T23:33:11.395Z,4.57
2023-04-07T23:35:37.648Z,4.32
2023-04-07T23:38:03.832Z,5.18
2023-04-07T23:40:29.967Z,5.05
2023-04-07T23:42:56.163Z,5.47
2023-04-07T23:45:22.320Z,5.72
2023-04-07T23:47:48.552Z,5.35
2023-04-07T23:50:14.746Z,4.63
2023-04-07T23:52:42.703Z,5.07
2023-04-07T23:55:08.848Z,5.28
2023-04-07T23:57:35.039Z,5.70
